Adriana — 9A6282 — position and weather

sailwx.info

Track history (hours):
 
Tides and Currents Weather Stations Pressure Air Temp Water Temp Dewpoint Dewpoint Depression Visibility Wind Speed Wind Dir Waves Ship Positions

Adriana

Last reported at 2017-Nov-19 15:00 UTC. Time now 2017-Nov-20 00:08 UTC.
Position N 44°58' E 014°29'.

Length 40 m; beam 10 m.

Type: High speed craft. MMSI: 238112440.

Date/timePositionNaut miles runAvg speedWind from/ knotsBaromVisibWave heightAir tempDewpointWater temp
2017-Nov-19 15:00N 44°58' E 014°29'1223.3
2017-Nov-19 14:30N 45°10' E 014°26'8 2.2
2017-Nov-19 10:41N 45°18' E 014°26'522.9
2017-Nov-19 10:27N 45°13' E 014°26'1022.9
2017-Nov-19 10:01N 45°03' E 014°26'3 0.1
2017-Nov-18 14:43N 45°05' E 014°25'522.7
2017-Nov-18 14:30N 45°10' E 014°27'8 1.2
2017-Nov-18 07:48N 45°18' E 014°26'722.3
2017-Nov-18 07:30N 45°11' E 014°25'1122.1
2017-Nov-18 07:01N 45°01' E 014°30'9 0.6
2017-Nov-17 15:31N 44°56' E 014°40'420.7
2017-Nov-17 15:20N 44°58' E 014°35'822.1
2017-Nov-17 14:57N 45°03' E 014°26'1022.0
2017-Nov-17 14:30N 45°13' E 014°26'  
2017-Nov-12 10:51N 45°19' E 014°25'822.3
2017-Nov-12 10:30N 45°11' E 014°25'1121.9
2017-Nov-12 10:00N 45°00' E 014°27'1121.5
2017-Nov-12 09:30N 44°51' E 014°35'6 0.4
2017-Nov-11 15:40N 44°46' E 014°40'422.4
2017-Nov-11 15:30N 44°49' E 014°38'1122.8
2017-Nov-11 15:00N 44°58' E 014°29'1122.0
2017-Nov-11 14:30N 45°09' E 014°26'9 1.3
2017-Nov-11 07:37N 45°18' E 014°26'323.4
2017-Nov-11 07:30N 45°15' E 014°26'1223.2
2017-Nov-11 07:01N 45°04' E 014°26'1623.5
2017-Nov-11 06:19N 44°50' E 014°36'1 0.1
2017-Nov-10 15:34N 44°49' E 014°37'122.0
2017-Nov-10 15:30N 44°50' E 014°36'1122.1
2017-Nov-10 15:00N 44°59' E 014°28'1421.3
2017-Nov-10 14:22N 45°13' E 014°26'6 1.0
2017-Nov-10 07:46N 45°19' E 014°26'520.1
2017-Nov-10 07:30N 45°14' E 014°26'1122.7
2017-Nov-10 07:01N 45°03' E 014°26'1322.7
2017-Nov-10 06:27N 44°52' E 014°35'4 0.3
2017-Nov-09 15:29N 44°49' E 014°37'  
Track history (hours):
 
Tides and Currents Weather Stations Pressure Air Temp Water Temp Dewpoint Dewpoint Depression Visibility Wind Speed Wind Dir Waves Ship Positions

Adriana

Last reported at 2017-Nov-19 15:00 UTC. Time now 2017-Nov-20 00:08 UTC.
Position N 44°58' E 014°29'.

Length 40 m; beam 10 m.

Type: High speed craft. MMSI: 238112440.

Date/timePositionNaut miles runAvg speedWind from/ knotsBaromVisibWave heightAir tempDewpointWater temp
2017-Nov-19 15:00N 44°58' E 014°29'1223.3
2017-Nov-19 14:30N 45°10' E 014°26'8 2.2
2017-Nov-19 10:41N 45°18' E 014°26'522.9
2017-Nov-19 10:27N 45°13' E 014°26'1022.9
2017-Nov-19 10:01N 45°03' E 014°26'3 0.1
2017-Nov-18 14:43N 45°05' E 014°25'522.7
2017-Nov-18 14:30N 45°10' E 014°27'8 1.2
2017-Nov-18 07:48N 45°18' E 014°26'722.3
2017-Nov-18 07:30N 45°11' E 014°25'1122.1
2017-Nov-18 07:01N 45°01' E 014°30'9 0.6
2017-Nov-17 15:31N 44°56' E 014°40'420.7
2017-Nov-17 15:20N 44°58' E 014°35'822.1
2017-Nov-17 14:57N 45°03' E 014°26'1022.0
2017-Nov-17 14:30N 45°13' E 014°26'  
2017-Nov-12 10:51N 45°19' E 014°25'822.3
2017-Nov-12 10:30N 45°11' E 014°25'1121.9
2017-Nov-12 10:00N 45°00' E 014°27'1121.5
2017-Nov-12 09:30N 44°51' E 014°35'6 0.4
2017-Nov-11 15:40N 44°46' E 014°40'422.4
2017-Nov-11 15:30N 44°49' E 014°38'1122.8
2017-Nov-11 15:00N 44°58' E 014°29'1122.0
2017-Nov-11 14:30N 45°09' E 014°26'9 1.3
2017-Nov-11 07:37N 45°18' E 014°26'323.4
2017-Nov-11 07:30N 45°15' E 014°26'1223.2
2017-Nov-11 07:01N 45°04' E 014°26'1623.5
2017-Nov-11 06:19N 44°50' E 014°36'1 0.1
2017-Nov-10 15:34N 44°49' E 014°37'122.0
2017-Nov-10 15:30N 44°50' E 014°36'1122.1
2017-Nov-10 15:00N 44°59' E 014°28'1421.3
2017-Nov-10 14:22N 45°13' E 014°26'6 1.0
2017-Nov-10 07:46N 45°19' E 014°26'520.1
2017-Nov-10 07:30N 45°14' E 014°26'1122.7
2017-Nov-10 07:01N 45°03' E 014°26'1322.7
2017-Nov-10 06:27N 44°52' E 014°35'4 0.3
2017-Nov-09 15:29N 44°49' E 014°37'  

Dump ship's entire track history